Green Bay, Wisconsin
Current Conditions -  °F | °C
As of 10:50 PM on Saturday 22 Nov 2014 (Local Time) from KGRB Reporting Station
Haze Haze  
Wind Chill: 34°   Ceiling: 600
Heat Index: 39°   Visibility: 2mi
Dew Point: 37°   Wind: 7mph
Humidity: 93%   Direction: 170°S
Pressure: 29.74"   Gusts: NA
Location:  44.51°N, 88.01°W
Report Text: KGRB 230450Z 17006KT 2SM BR OVC006 04/03 A2974 RMK AO2
Loading
Personal Weather Stations






























Interactive Weather Map New forecast layout! Learn more

10-Day Weather Forecast

Advertisements
Track Severe Weather on mobile